»·PEaware :: ASA458 KCOA-KSEA

ASA458 :: KCOA-KSEA

FLIGHT INFORMATION

Flight Status: Arrived
Operator:
Alaska Airlines
More flights by this operator :: More flights under this callsign
Pilot: Caiolinn E. (33836)
Aircraft: BOEING 737-800
(B738)
More flights by this aircraft type
Origin: KCOA
Destination: KSEA Seattle-Tacoma Intl
United States
More flights between these airports :: More routes between these airports
Route: GEG GLASR1
File this flight plan on PilotEdge
Remarks:
Altitude:
(Current/Filed)
28,000ft
Speed:
(Current/Filed)
425kts
Departed: 16-Feb-21 06:12 AM
Arrived: 16-Feb-21 07:11 AM
Distance/Time
Traveled:
Not Available
Distance/Time
To Go:
Arrived

Flight Plot

Page will automatically refresh every two minutes.

Flight plan parsing failed; only flown route is shown


Map Options




Map Legend


Flown Route
Filed Route
Departure Airport
Arrival Airport
Navaid (VOR, NDB)
Fix

Horizontal Profiles

Position Reports

Time Latitude Longitude Heading Altitude Ground
Speed
16-Feb-21 06:01 47.777341 -116.825347 157 2298ft 0kts
16-Feb-21 06:02 47.777341 -116.825347 157 2298ft 0kts
16-Feb-21 06:03 47.777317 -116.825332 157 2298ft 1kts
16-Feb-21 06:04 47.775937 -116.826606 82 2295ft 7kts
16-Feb-21 06:05 47.777148 -116.821643 71 2302ft 18kts
16-Feb-21 06:06 47.778035 -116.817975 71 2306ft 3kts
16-Feb-21 06:07 47.778518 -116.815977 69 2309ft 6kts
16-Feb-21 06:08 47.779517 -116.812355 59 2314ft 5kts
16-Feb-21 06:09 47.779490 -116.810166 121 2318ft 5kts
16-Feb-21 06:10 47.778542 -116.809942 246 2318ft 0kts
16-Feb-21 06:11 47.775371 -116.822839 249 2303ft 139kts
16-Feb-21 06:12 47.752724 -116.895421 243 3478ft 245kts
16-Feb-21 06:13 47.730591 -116.995404 250 5948ft 253kts
16-Feb-21 06:14 47.704794 -117.095179 250 8567ft 263kts
16-Feb-21 06:15 47.677827 -117.198711 251 11162ft 295kts
16-Feb-21 06:16 47.645747 -117.321139 252 13949ft 334kts
16-Feb-21 06:17 47.611207 -117.452341 252 16577ft 346kts
16-Feb-21 06:18 47.575141 -117.588524 253 19194ft 359kts
16-Feb-21 06:19 47.576491 -117.744414 280 21947ft 356kts
16-Feb-21 06:20 47.591221 -117.900822 280 24641ft 365kts
16-Feb-21 06:21 47.606568 -118.064174 280 26933ft 384kts
16-Feb-21 06:22 47.622494 -118.236337 280 27956ft 408kts
16-Feb-21 06:23 47.638314 -118.410538 280 27938ft 404kts
16-Feb-21 06:24 47.654329 -118.589914 280 27994ft 404kts
16-Feb-21 06:25 47.669745 -118.765670 280 28000ft 404kts
16-Feb-21 06:26 47.684778 -118.940231 280 27999ft 400kts
16-Feb-21 06:27 47.699212 -119.110792 280 27996ft 397kts
16-Feb-21 06:28 47.713688 -119.285261 280 27989ft 402kts
16-Feb-21 06:29 47.727940 -119.460194 280 27985ft 403kts
16-Feb-21 06:30 47.741816 -119.633943 280 27985ft 402kts
16-Feb-21 06:31 47.754852 -119.800197 279 27989ft 403kts
16-Feb-21 06:32 47.767556 -119.965447 279 27982ft 403kts
16-Feb-21 06:33 47.780028 -120.130904 279 27979ft 404kts
16-Feb-21 06:34 47.792353 -120.297746 279 27977ft 404kts
16-Feb-21 06:35 47.804834 -120.470178 279 27976ft 404kts
16-Feb-21 06:36 47.817421 -120.647683 279 27975ft 404kts
16-Feb-21 06:37 47.829065 -120.815884 278 27980ft 404kts
16-Feb-21 06:38 47.840401 -120.982891 278 27980ft 403kts
16-Feb-21 06:39 47.851498 -121.150251 278 26760ft 403kts
16-Feb-21 06:40 47.862037 -121.312805 278 23058ft 364kts
16-Feb-21 06:41 47.871517 -121.461861 277 19450ft 348kts
16-Feb-21 06:42 47.880166 -121.600920 277 15904ft 331kts
16-Feb-21 06:43 47.863500 -121.726734 237 12317ft 307kts
16-Feb-21 06:44 47.823394 -121.818076 242 11772ft 247kts
16-Feb-21 06:45 47.790062 -121.895492 240 10318ft 208kts
16-Feb-21 06:46 47.755780 -121.974631 243 8747ft 237kts
16-Feb-21 06:47 47.722948 -122.050359 241 6499ft 238kts
16-Feb-21 06:48 47.693635 -122.117693 240 4768ft 222kts
16-Feb-21 06:49 47.666395 -122.180169 239 3260ft 213kts
16-Feb-21 06:50 47.638668 -122.243536 239 3226ft 198kts
16-Feb-21 06:51 47.611825 -122.302177 222 3209ft 205kts
16-Feb-21 06:52 47.566948 -122.317582 180 2805ft 202kts
16-Feb-21 06:53 47.520640 -122.328796 179 1598ft 196kts
16-Feb-21 06:54 47.468022 -122.312307 183 1321ft 217kts
16-Feb-21 06:55 47.446513 -122.315651 189 983ft 178kts
16-Feb-21 06:56 47.446513 -122.315651 189 983ft 178kts
16-Feb-21 06:57 47.405998 -122.335965 222 1854ft 140kts
16-Feb-21 06:58 47.401555 -122.353278 271 2007ft 165kts
16-Feb-21 06:59 47.401555 -122.353278 271 2007ft 165kts
16-Feb-21 07:00 47.401555 -122.353278 271 2007ft 165kts
16-Feb-21 07:01 47.401555 -122.353278 271 2007ft 165kts
16-Feb-21 07:02 47.401555 -122.353278 271 2007ft 165kts
16-Feb-21 07:03 47.435992 -122.390765 357 2149ft 214kts
16-Feb-21 07:04 47.493093 -122.396542 345 2156ft 204kts
16-Feb-21 07:05 47.546943 -122.415508 347 2065ft 204kts
16-Feb-21 07:06 47.589833 -122.382553 77 1956ft 194kts
16-Feb-21 07:07 47.560286 -122.331445 151 2036ft 182kts
16-Feb-21 07:08 47.514236 -122.307528 154 1643ft 184kts
16-Feb-21 07:09 47.466413 -122.311039 181 778ft 168kts
16-Feb-21 07:10 47.439427 -122.308962 131 369ft 0kts
16-Feb-21 07:11 47.439103 -122.308071 108 369ft 6kts
16-Feb-21 07:12 47.440002 -122.306411 1 376ft 7kts
16-Feb-21 07:14 47.441944 -122.305741 78 383ft 9kts
16-Feb-21 07:15 47.443240 -122.303974 120 387ft 2kts
16-Feb-21 07:16 47.442882 -122.303393 136 385ft 0kts

Navigation Log

Ident Type
Flight plan parsing failed, navigation log unavailable